createdAt,value
2022-11-18T00:01:31.205Z,4.87
2022-11-18T00:03:59.934Z,4.86
2022-11-18T00:06:30.345Z,4.86
2022-11-18T00:09:00.345Z,4.86
2022-11-18T00:11:49.163Z,4.87
2022-11-18T00:14:24.877Z,4.87
2022-11-18T00:16:57.215Z,4.85
2022-11-18T00:19:30.372Z,4.82
2022-11-18T00:21:59.039Z,4.86
2022-11-18T00:24:27.622Z,4.83
2022-11-18T00:26:56.121Z,4.81
2022-11-18T00:29:28.444Z,4.80
2022-11-18T00:31:57.970Z,4.79
2022-11-18T00:34:26.735Z,4.78
2022-11-18T00:36:55.009Z,4.76
2022-11-18T00:39:23.239Z,4.76
2022-11-18T00:42:10.090Z,4.73
2022-11-18T00:44:38.449Z,4.70
2022-11-18T00:47:06.677Z,4.68
2022-11-18T00:49:35.207Z,4.64
2022-11-18T00:52:03.749Z,4.64
2022-11-18T00:54:32.079Z,4.64
2022-11-18T00:57:00.235Z,4.64
2022-11-18T00:59:28.496Z,4.66
2022-11-18T01:01:57.041Z,4.65
2022-11-18T01:04:25.596Z,4.66
2022-11-18T01:06:53.809Z,4.62
2022-11-18T01:09:21.984Z,4.63
2022-11-18T01:12:08.741Z,4.64
2022-11-18T01:14:37.195Z,4.66
2022-11-18T01:17:05.391Z,4.66
2022-11-18T01:19:33.536Z,4.66
2022-11-18T01:22:03.484Z,4.67
2022-11-18T01:24:34.981Z,4.66
2022-11-18T01:27:03.639Z,4.63
2022-11-18T01:29:31.827Z,4.61
2022-11-18T01:34:48.748Z,4.55
2022-11-18T01:37:17.035Z,4.53
2022-11-18T01:39:45.339Z,4.51
2022-11-18T01:42:17.771Z,4.52
2022-11-18T01:45:02.344Z,4.50
2022-11-18T01:47:44.375Z,4.48
2022-11-18T01:50:15.599Z,4.47
2022-11-18T01:52:51.290Z,4.47
2022-11-18T01:55:26.198Z,4.46
2022-11-18T01:58:04.182Z,4.45
2022-11-18T02:00:32.295Z,4.43
2022-11-18T02:03:02.240Z,4.41
2022-11-18T02:05:31.724Z,4.38
2022-11-18T02:08:01.358Z,4.35
2022-11-18T02:10:29.577Z,4.35
2022-11-18T02:12:59.515Z,4.32
2022-11-18T02:16:08.276Z,4.31
2022-11-18T02:19:01.829Z,4.32
2022-11-18T02:21:57.894Z,4.30
2022-11-18T02:24:43.759Z,4.25
2022-11-18T02:27:27.420Z,4.22
2022-11-18T02:30:02.628Z,4.20
2022-11-18T02:32:43.941Z,4.19
2022-11-18T02:35:19.302Z,4.18
2022-11-18T02:37:57.924Z,4.17
2022-11-18T02:40:30.559Z,4.15
2022-11-18T02:43:04.163Z,4.13
2022-11-18T02:45:33.598Z,4.11
2022-11-18T02:48:07.262Z,4.09
2022-11-18T02:50:38.593Z,4.05
2022-11-18T02:53:09.480Z,4.03
2022-11-18T02:55:40.680Z,4.00
2022-11-18T02:58:09.742Z,4.00
2022-11-18T03:00:38.215Z,3.98
2022-11-18T03:03:25.478Z,3.97
2022-11-18T03:06:25.112Z,3.94
2022-11-18T03:09:18.809Z,3.87
2022-11-18T03:12:19.872Z,3.82
2022-11-18T03:15:09.794Z,3.72
2022-11-18T03:18:15.098Z,3.67
2022-11-18T03:20:55.683Z,3.59
2022-11-18T03:23:35.055Z,3.54
2022-11-18T03:26:14.490Z,3.49
2022-11-18T03:28:56.474Z,3.45
2022-11-18T03:31:42.114Z,3.45
2022-11-18T03:34:28.676Z,3.43
2022-11-18T03:37:03.313Z,3.41
2022-11-18T03:39:38.818Z,3.41
2022-11-18T03:42:19.712Z,3.46
2022-11-18T03:44:54.405Z,3.49
2022-11-18T03:47:32.040Z,3.51
2022-11-18T03:50:17.565Z,3.53
2022-11-18T03:52:47.512Z,3.54
2022-11-18T03:55:24.672Z,3.54
2022-11-18T03:57:58.872Z,3.55
2022-11-18T04:00:33.368Z,3.51
2022-11-18T04:03:01.916Z,3.48
2022-11-18T04:05:36.474Z,3.44
2022-11-18T04:08:09.926Z,3.42
2022-11-18T04:10:49.817Z,3.39
2022-11-18T04:13:32.523Z,3.39
2022-11-18T04:16:01.188Z,3.38
2022-11-18T04:18:29.608Z,3.37
2022-11-18T04:20:57.769Z,3.37
2022-11-18T04:23:25.892Z,3.35
2022-11-18T04:25:54.136Z,3.32
2022-11-18T04:28:22.325Z,3.28
2022-11-18T04:30:51.144Z,3.26
2022-11-18T04:33:19.344Z,3.26
2022-11-18T04:35:47.725Z,3.30
2022-11-18T04:38:21.621Z,3.32
2022-11-18T04:40:50.283Z,3.37
2022-11-18T04:43:18.550Z,3.44
2022-11-18T04:45:46.710Z,3.48
2022-11-18T04:48:16.123Z,3.54
2022-11-18T04:50:44.292Z,3.59
2022-11-18T04:53:13.343Z,3.64
2022-11-18T04:55:41.774Z,3.67
2022-11-18T04:58:10.011Z,3.69
2022-11-18T05:00:38.272Z,3.70
2022-11-18T05:03:06.520Z,3.69
2022-11-18T05:05:35.131Z,3.69
2022-11-18T05:08:03.368Z,3.68
2022-11-18T05:10:31.629Z,3.66
2022-11-18T05:13:00.518Z,3.63
2022-11-18T05:15:28.754Z,3.54
2022-11-18T05:17:56.915Z,3.47
2022-11-18T05:20:25.173Z,3.42
2022-11-18T05:22:53.577Z,3.41
2022-11-18T05:25:23.857Z,3.41
2022-11-18T05:27:52.071Z,3.44
2022-11-18T05:30:20.227Z,3.31
2022-11-18T05:32:48.406Z,3.23
2022-11-18T05:35:16.724Z,3.16
2022-11-18T05:37:44.940Z,3.06
2022-11-18T05:40:13.072Z,3.05
2022-11-18T05:43:01.001Z,3.02
2022-11-18T05:45:29.281Z,3.00
2022-11-18T05:48:00.971Z,2.95
2022-11-18T05:50:29.292Z,2.82
2022-11-18T05:52:58.879Z,2.75
2022-11-18T05:55:35.673Z,2.71
2022-11-18T05:58:04.056Z,2.67
2022-11-18T06:00:32.974Z,2.60
2022-11-18T06:03:03.400Z,2.56
2022-11-18T06:05:31.872Z,2.56
2022-11-18T06:08:00.166Z,2.52
2022-11-18T06:10:34.332Z,2.51
2022-11-18T06:13:10.395Z,2.44
2022-11-18T06:15:42.500Z,2.37
2022-11-18T06:18:21.671Z,2.31
2022-11-18T06:20:53.334Z,2.27
2022-11-18T06:23:27.436Z,2.25
2022-11-18T06:26:11.044Z,2.25
2022-11-18T06:28:52.614Z,2.19
2022-11-18T06:31:29.846Z,2.17
2022-11-18T06:34:02.679Z,2.18
2022-11-18T06:36:35.748Z,2.19
2022-11-18T06:39:06.026Z,2.19
2022-11-18T06:41:35.282Z,2.18
2022-11-18T06:44:03.746Z,2.14
2022-11-18T06:46:51.907Z,2.11
2022-11-18T06:49:20.377Z,2.05
2022-11-18T06:51:48.894Z,2.01
2022-11-18T06:54:17.195Z,2.00
2022-11-18T06:56:45.471Z,2.00
2022-11-18T06:59:14.295Z,2.02
2022-11-18T07:01:42.589Z,2.02
2022-11-18T07:04:11.227Z,2.00
2022-11-18T07:06:40.020Z,2.00
2022-11-18T07:09:08.657Z,2.00
2022-11-18T07:11:40.892Z,1.99
2022-11-18T07:14:11.729Z,2.00
2022-11-18T07:16:42.265Z,2.02
2022-11-18T07:19:13.615Z,2.03
2022-11-18T07:21:43.513Z,2.02
2022-11-18T07:24:15.108Z,1.98
2022-11-18T07:26:44.135Z,1.94
2022-11-18T07:29:12.902Z,1.91
2022-11-18T07:31:41.468Z,1.89
2022-11-18T07:34:10.483Z,1.88
2022-11-18T07:36:39.682Z,1.89
2022-11-18T07:39:09.220Z,1.90
2022-11-18T07:41:40.364Z,1.92
2022-11-18T07:44:12.378Z,1.93
2022-11-18T07:46:46.852Z,1.91
2022-11-18T07:49:16.587Z,1.91
2022-11-18T07:51:45.530Z,1.92
2022-11-18T07:54:17.508Z,1.94
2022-11-18T07:56:46.500Z,1.97
2022-11-18T07:59:15.102Z,1.98
2022-11-18T08:01:43.693Z,1.98
2022-11-18T08:04:13.139Z,1.97
2022-11-18T08:06:42.094Z,1.97
2022-11-18T08:09:11.078Z,1.97
2022-11-18T08:11:41.098Z,1.95
2022-11-18T08:14:10.511Z,1.97
2022-11-18T08:16:39.322Z,1.98
2022-11-18T08:19:08.034Z,2.01
2022-11-18T08:21:36.950Z,1.99
2022-11-18T08:24:05.953Z,1.93
2022-11-18T08:26:34.915Z,1.91
2022-11-18T08:29:04.102Z,1.91
2022-11-18T08:31:32.928Z,1.87
2022-11-18T08:34:08.221Z,1.82
2022-11-18T08:36:38.333Z,1.84
2022-11-18T08:39:09.175Z,1.85
2022-11-18T08:41:40.734Z,1.89
2022-11-18T08:44:13.220Z,1.91
2022-11-18T08:46:43.516Z,1.93
2022-11-18T08:49:13.058Z,1.94
2022-11-18T08:51:42.210Z,1.95
2022-11-18T08:54:11.365Z,1.93
2022-11-18T08:56:41.311Z,2.01
2022-11-18T08:59:10.590Z,2.07
2022-11-18T09:01:42.324Z,2.25
2022-11-18T09:04:11.925Z,2.25
2022-11-18T09:06:41.085Z,2.26
2022-11-18T09:09:09.808Z,2.28
2022-11-18T09:11:39.786Z,2.28
2022-11-18T09:17:03.903Z,2.26
2022-11-18T09:19:47.161Z,2.22
2022-11-18T09:22:17.867Z,2.18
2022-11-18T09:24:47.213Z,2.16
2022-11-18T09:30:06.977Z,2.17
2022-11-18T09:32:35.984Z,2.22
2022-11-18T09:35:06.781Z,2.21
2022-11-18T09:37:36.136Z,2.20
2022-11-18T09:40:04.848Z,2.18
2022-11-18T09:42:53.005Z,2.16
2022-11-18T09:45:40.877Z,2.16
2022-11-18T09:48:20.013Z,2.20
2022-11-18T09:50:50.414Z,2.25
2022-11-18T09:53:26.281Z,2.21
2022-11-18T09:55:55.933Z,2.12
2022-11-18T09:58:36.723Z,2.09
2022-11-18T10:01:14.673Z,2.07
2022-11-18T10:03:44.050Z,2.03
2022-11-18T10:06:25.619Z,2.04
2022-11-18T10:09:09.976Z,2.07
2022-11-18T10:11:51.635Z,2.10
2022-11-18T10:14:42.030Z,2.08
2022-11-18T10:17:35.701Z,2.06
2022-11-18T10:20:14.490Z,2.04
2022-11-18T10:22:55.499Z,2.04
2022-11-18T10:25:25.573Z,2.05
2022-11-18T10:27:56.976Z,2.05
2022-11-18T10:30:26.726Z,2.05
2022-11-18T10:32:56.484Z,2.02
2022-11-18T10:35:38.709Z,1.94
2022-11-18T10:38:25.446Z,1.80
2022-11-18T10:40:53.864Z,1.74
2022-11-18T10:43:44.410Z,1.66
2022-11-18T10:46:39.506Z,1.57
2022-11-18T10:49:11.250Z,1.52
2022-11-18T10:51:48.860Z,1.47
2022-11-18T10:54:22.280Z,1.42
2022-11-18T10:56:58.336Z,1.40
2022-11-18T10:59:31.933Z,1.40
2022-11-18T11:02:38.048Z,1.38
2022-11-18T11:05:21.963Z,1.37
2022-11-18T11:08:34.685Z,1.36
2022-11-18T11:10:57.103Z,1.40
2022-11-18T11:13:29.811Z,1.40
2022-11-18T11:16:10.653Z,1.45
2022-11-18T11:18:42.351Z,1.48
2022-11-18T11:21:18.319Z,1.58
2022-11-18T11:23:47.546Z,1.65
2022-11-18T11:29:56.234Z,1.72
2022-11-18T11:32:44.033Z,1.78
2022-11-18T11:35:19.303Z,1.81
2022-11-18T11:37:58.763Z,1.82
2022-11-18T11:40:34.917Z,1.81
2022-11-18T11:43:31.813Z,1.91
2022-11-18T11:46:30.327Z,1.98
2022-11-18T11:49:24.015Z,2.00
2022-11-18T11:51:58.941Z,2.03
2022-11-18T11:54:33.115Z,2.03
2022-11-18T11:57:13.293Z,2.01
2022-11-18T12:00:07.595Z,2.01
2022-11-18T12:03:10.425Z,1.99
2022-11-18T12:05:43.358Z,2.00
2022-11-18T12:08:17.442Z,2.05
2022-11-18T12:10:52.625Z,2.09
2022-11-18T12:13:31.051Z,2.09
2022-11-18T12:16:18.479Z,2.12
2022-11-18T12:18:52.856Z,2.07
2022-11-18T12:21:47.498Z,2.04
2022-11-18T12:24:21.948Z,1.93
2022-11-18T12:26:53.748Z,2.04
2022-11-18T12:29:43.562Z,2.02
2022-11-18T12:32:30.670Z,2.03
2022-11-18T12:35:01.229Z,1.98
2022-11-18T12:37:29.625Z,1.95
2022-11-18T12:40:01.127Z,1.90
2022-11-18T12:43:05.725Z,1.86
2022-11-18T12:45:40.741Z,1.83
2022-11-18T12:48:30.183Z,1.85
2022-11-18T12:51:01.173Z,1.85
2022-11-18T12:53:35.880Z,1.79
2022-11-18T12:56:25.241Z,1.72
2022-11-18T12:59:00.377Z,1.68
2022-11-18T13:01:34.807Z,1.66
2022-11-18T13:04:16.133Z,1.65
2022-11-18T13:06:45.223Z,1.61
2022-11-18T13:09:24.705Z,1.58
2022-11-18T13:12:01.888Z,1.54
2022-11-18T13:14:55.783Z,1.51
2022-11-18T13:17:44.553Z,1.53
2022-11-18T13:20:20.659Z,1.53
2022-11-18T13:23:13.271Z,1.50
2022-11-18T13:25:46.005Z,1.41
2022-11-18T13:28:33.797Z,1.28
2022-11-18T13:31:53.678Z,1.15
2022-11-18T13:34:52.521Z,1.05
2022-11-18T13:37:28.359Z,0.98
2022-11-18T13:39:58.245Z,0.92
2022-11-18T13:42:32.142Z,0.86
2022-11-18T13:45:02.880Z,0.80
2022-11-18T13:47:44.404Z,0.75
2022-11-18T13:50:25.523Z,0.71
2022-11-18T13:53:29.433Z,0.66
2022-11-18T13:56:49.040Z,0.61
2022-11-18T13:59:21.301Z,0.58
2022-11-18T14:06:32.951Z,0.51
2022-11-18T14:09:20.353Z,0.51
2022-11-18T14:12:07.541Z,0.51
2022-11-18T14:14:41.598Z,0.51
2022-11-18T14:17:16.536Z,0.50
2022-11-18T14:19:46.489Z,0.54
2022-11-18T14:22:23.545Z,0.60
2022-11-18T14:25:15.941Z,0.70
2022-11-18T14:27:58.487Z,0.80
2022-11-18T14:30:28.062Z,0.83
2022-11-18T14:33:26.682Z,0.89
2022-11-18T14:36:11.053Z,0.93
2022-11-18T14:39:19.778Z,0.98
2022-11-18T14:45:49.158Z,1.02
2022-11-18T14:48:21.091Z,1.07
2022-11-18T14:50:49.939Z,1.12
2022-11-18T14:53:21.369Z,1.15
2022-11-18T14:55:54.611Z,1.18
2022-11-18T14:58:22.960Z,1.21
2022-11-18T15:00:52.289Z,1.25
2022-11-18T15:03:21.912Z,1.31
2022-11-18T15:05:50.763Z,1.34
2022-11-18T15:08:19.499Z,1.32
2022-11-18T15:10:47.845Z,1.36
2022-11-18T15:13:16.438Z,1.39
2022-11-18T15:15:45.214Z,1.42
2022-11-18T15:18:13.896Z,1.42
2022-11-18T15:20:42.492Z,1.43
2022-11-18T15:23:11.154Z,1.42
2022-11-18T15:25:40.119Z,1.41
2022-11-18T15:28:10.912Z,1.39
2022-11-18T15:30:39.544Z,1.38
2022-11-18T15:33:08.073Z,1.32
2022-11-18T15:35:37.186Z,1.25
2022-11-18T15:38:05.817Z,1.22
2022-11-18T15:40:35.325Z,1.24
2022-11-18T15:43:04.592Z,1.15
2022-11-18T15:45:33.347Z,1.05
2022-11-18T15:48:02.106Z,0.98
2022-11-18T15:50:31.219Z,0.91
2022-11-18T15:53:00.543Z,0.90
2022-11-18T15:55:29.196Z,0.90
2022-11-18T15:57:57.789Z,0.91
2022-11-18T16:00:26.957Z,0.93
2022-11-18T16:02:55.470Z,0.94
2022-11-18T16:05:24.645Z,0.95
2022-11-18T16:07:55.138Z,1.02
2022-11-18T16:10:46.116Z,1.06
2022-11-18T16:13:21.544Z,1.11
2022-11-18T16:15:50.163Z,1.16
2022-11-18T16:18:19.955Z,1.19
2022-11-18T16:20:49.307Z,1.21
2022-11-18T16:23:17.879Z,1.22
2022-11-18T16:25:46.674Z,1.25
2022-11-18T16:28:15.825Z,1.30
2022-11-18T16:31:09.192Z,1.34
2022-11-18T16:33:38.453Z,1.34
2022-11-18T16:36:08.983Z,1.35
2022-11-18T16:38:37.996Z,1.36
2022-11-18T16:41:27.295Z,1.35
2022-11-18T16:43:56.867Z,1.35
2022-11-18T16:46:27.532Z,1.36
2022-11-18T16:48:56.759Z,1.36
2022-11-18T16:51:31.038Z,1.35
2022-11-18T16:54:09.904Z,1.30
2022-11-18T16:56:41.012Z,1.30
2022-11-18T16:59:23.146Z,1.30
2022-11-18T17:01:56.697Z,1.33
2022-11-18T17:04:28.255Z,1.34
2022-11-18T17:07:01.519Z,1.37
2022-11-18T17:09:30.903Z,1.37
2022-11-18T17:12:00.001Z,1.36
2022-11-18T17:14:30.677Z,1.38
2022-11-18T17:17:00.278Z,1.42
2022-11-18T17:19:28.953Z,1.43
2022-11-18T17:21:58.586Z,1.46
2022-11-18T17:24:27.574Z,1.43
2022-11-18T17:26:57.602Z,1.42
2022-11-18T17:29:27.753Z,1.53
2022-11-18T17:31:57.308Z,1.54
2022-11-18T17:34:27.159Z,1.60
2022-11-18T17:36:59.155Z,1.61
2022-11-18T17:39:32.911Z,1.58
2022-11-18T17:42:15.118Z,1.55
2022-11-18T17:44:44.792Z,1.49
2022-11-18T17:47:14.053Z,1.45
2022-11-18T17:49:43.320Z,1.43
2022-11-18T17:52:12.564Z,1.41
2022-11-18T17:54:41.526Z,1.38
2022-11-18T17:57:10.425Z,1.37
2022-11-18T17:59:38.956Z,1.41
2022-11-18T18:02:07.641Z,1.44
2022-11-18T18:04:36.354Z,1.44
2022-11-18T18:07:05.021Z,1.45
2022-11-18T18:09:33.622Z,1.45
2022-11-18T18:12:22.093Z,1.43
2022-11-18T18:14:51.760Z,1.42
2022-11-18T18:17:21.371Z,1.40
2022-11-18T18:19:51.238Z,1.37
2022-11-18T18:22:20.894Z,1.20
2022-11-18T18:24:50.366Z,1.09
2022-11-18T18:27:19.261Z,1.06
2022-11-18T18:29:48.138Z,1.01
2022-11-18T18:32:19.942Z,0.98
2022-11-18T18:34:48.893Z,0.94
2022-11-18T18:37:17.773Z,0.92
2022-11-18T18:39:47.358Z,0.89
2022-11-18T18:42:16.687Z,0.84
2022-11-18T18:45:04.633Z,0.88
2022-11-18T18:47:37.384Z,0.91
2022-11-18T18:50:06.936Z,0.97
2022-11-18T18:52:35.875Z,1.02
2022-11-18T18:55:05.672Z,1.06
2022-11-18T18:57:34.783Z,1.09
2022-11-18T19:00:05.027Z,1.13
2022-11-18T19:02:33.926Z,1.16
2022-11-18T19:05:02.368Z,1.24
2022-11-18T19:07:32.268Z,1.30
2022-11-18T19:10:03.101Z,1.36
2022-11-18T19:12:44.894Z,1.42
2022-11-18T19:15:17.034Z,1.46
2022-11-18T19:17:47.963Z,1.49
2022-11-18T19:20:37.104Z,1.54
2022-11-18T19:23:11.910Z,1.55
2022-11-18T19:25:41.583Z,1.54
2022-11-18T19:28:15.184Z,1.53
2022-11-18T19:30:45.618Z,1.46
2022-11-18T19:33:19.231Z,1.40
2022-11-18T19:35:48.929Z,1.35
2022-11-18T19:38:23.036Z,1.27
2022-11-18T19:41:02.286Z,1.21
2022-11-18T19:43:34.305Z,1.19
2022-11-18T19:46:06.393Z,1.18
2022-11-18T19:48:36.006Z,1.16
2022-11-18T19:51:14.299Z,1.17
2022-11-18T19:53:44.489Z,1.20
2022-11-18T19:56:18.525Z,1.27
2022-11-18T19:58:51.636Z,1.32
2022-11-18T20:01:24.634Z,1.34
2022-11-18T20:03:56.526Z,1.33
2022-11-18T20:06:27.568Z,1.28
2022-11-18T20:08:57.221Z,1.25
2022-11-18T20:11:25.682Z,1.21
2022-11-18T20:13:55.304Z,1.27
2022-11-18T20:16:25.972Z,1.27
2022-11-18T20:18:56.653Z,1.27
2022-11-18T20:21:26.567Z,1.26
2022-11-18T20:23:58.538Z,1.26
2022-11-18T20:26:32.466Z,1.29
2022-11-18T20:29:01.853Z,1.32
2022-11-18T20:31:30.875Z,1.34
2022-11-18T20:34:00.777Z,1.36
2022-11-18T20:36:32.795Z,1.35
2022-11-18T20:39:07.786Z,1.32
2022-11-18T20:41:37.856Z,1.30
2022-11-18T20:44:08.888Z,1.27
2022-11-18T20:46:37.777Z,1.25
2022-11-18T20:49:07.635Z,1.22
2022-11-18T20:51:37.827Z,1.21
2022-11-18T20:54:10.153Z,1.19
2022-11-18T20:56:40.521Z,1.18
2022-11-18T20:59:09.788Z,1.17
2022-11-18T21:01:40.712Z,1.18
2022-11-18T21:04:12.991Z,1.18
2022-11-18T21:06:43.039Z,1.20
2022-11-18T21:09:12.949Z,1.23
2022-11-18T21:11:46.693Z,1.27
2022-11-18T21:14:23.363Z,1.28
2022-11-18T21:16:58.212Z,1.29
2022-11-18T21:19:28.674Z,1.30
2022-11-18T21:21:58.195Z,1.28
2022-11-18T21:24:35.842Z,1.25
2022-11-18T21:27:06.280Z,1.26
2022-11-18T21:29:35.434Z,1.27
2022-11-18T21:32:04.378Z,1.28
2022-11-18T21:34:33.738Z,1.28
2022-11-18T21:37:02.732Z,1.29
2022-11-18T21:39:32.237Z,1.30
2022-11-18T21:42:09.940Z,1.35
2022-11-18T21:44:39.821Z,1.39
2022-11-18T21:47:08.429Z,1.43
2022-11-18T21:49:37.887Z,1.46
2022-11-18T21:52:06.538Z,1.49
2022-11-18T21:54:35.545Z,1.53
2022-11-18T21:57:05.513Z,1.52
2022-11-18T21:59:34.719Z,1.50
2022-11-18T22:02:03.408Z,1.51
2022-11-18T22:04:51.074Z,1.54
2022-11-18T22:07:24.921Z,1.54
2022-11-18T22:09:55.368Z,1.53
2022-11-18T22:12:24.570Z,1.51
2022-11-18T22:14:53.055Z,1.48
2022-11-18T22:17:22.107Z,1.43
2022-11-18T22:19:51.039Z,1.40
2022-11-18T22:22:20.131Z,1.35
2022-11-18T22:24:48.513Z,1.31
2022-11-18T22:27:17.713Z,1.27
2022-11-18T22:29:47.003Z,1.24
2022-11-18T22:32:16.380Z,1.22
2022-11-18T22:34:50.613Z,1.23
2022-11-18T22:37:21.987Z,1.23
2022-11-18T22:39:51.081Z,1.19
2022-11-18T22:42:39.109Z,1.17
2022-11-18T22:45:08.360Z,1.15
2022-11-18T22:47:36.584Z,1.11
2022-11-18T22:50:05.370Z,1.09
2022-11-18T22:52:33.706Z,1.08
2022-11-18T22:55:01.770Z,1.06
2022-11-18T22:57:35.076Z,1.00
2022-11-18T23:00:05.992Z,0.99
2022-11-18T23:02:34.240Z,0.94
2022-11-18T23:05:02.399Z,0.95
2022-11-18T23:07:30.661Z,0.95
2022-11-18T23:09:58.955Z,1.08
2022-11-18T23:12:47.808Z,1.11
2022-11-18T23:15:16.437Z,1.15
2022-11-18T23:17:45.012Z,1.12
2022-11-18T23:20:13.182Z,1.09
2022-11-18T23:22:41.535Z,1.05
2022-11-18T23:25:10.145Z,1.04
2022-11-18T23:27:38.798Z,1.02
2022-11-18T23:30:08.097Z,1.00
2022-11-18T23:32:36.390Z,0.99
2022-11-18T23:35:06.010Z,0.99
2022-11-18T23:37:34.376Z,0.98
2022-11-18T23:40:02.661Z,0.97
2022-11-18T23:42:31.233Z,0.97
2022-11-18T23:45:04.880Z,0.98
2022-11-18T23:47:33.630Z,1.00
2022-11-18T23:50:02.009Z,0.99
2022-11-18T23:52:30.389Z,0.98
2022-11-18T23:55:01.761Z,0.95
2022-11-18T23:57:30.121Z,0.93
2022-11-18T23:59:58.394Z,0.89
